Terminal Aerodrome Forecast
Issued by NWS Wilmington, OH

Current Version | Previous Version | Graphics & Text | Print | Product List | Glossary On
Versions: 1 2 3 4 5 6 7 8 9 10 11 12 13 14 15 16 17 18 19 20 21 22
000
FTUS41 KILN 232300
TAFILN
TAF
KILN 232331Z 2400/2424 VRB03KT P6SM SCT110 BKN200
     FM241500 24006KT P6SM SCT050 BKN110
     FM242300 25003KT P6SM SCT030=

USA.gov is the U.S. government's official web portal to all federal, state and local government web resources and services.